• Join FlightAware (Why Join?)
  • Login
  • US Flag 
01:42PM EST


 

Airport Tracker/Info


-or-


 

Live Flight TrackerFlight Track Log ✈ N3192W ✈ 17-Aug-2014 ✈ KCNI - KISM

Flight Track Log - Related Links

Times and Time Zones

All times are in EDT time to prevent confusion due to time zone crossing. See the N3192W flight status page for this flight to view local times or setup timezone preferences in your user account.

Time Position Orientation Groundspeed Altitude Reporting Facility
EDT Latitude Longitude Course Direction KTS MPH feet Rate Location/Type
11:45AM 34.2833 -84.4333 180° South 89 102 2,100  Level Atlanta TRACON
11:46AM 34.2667 -84.4333 180° South 97 112 2,900 780 Climbing Atlanta TRACON
11:47AM 34.2333 -84.4167 158° South 106 122 3,600 660 Climbing Atlanta TRACON
11:48AM 34.2000 -84.4167 180° South 106 122 4,300 600 Climbing Atlanta TRACON
11:49AM 34.1833 -84.4167 180° South 105 121 4,900 300 Climbing Atlanta TRACON
11:50AM 34.1500 -84.4167 180° South 138 159 5,000  Climbing Atlanta TRACON
11:51AM 34.1000 -84.4333 195° South 152 175 5,000  Level Atlanta TRACON
11:52AM 34.0667 -84.4333 180° South 156 180 5,000  Level Atlanta TRACON
11:53AM 34.0167 -84.4333 180° South 155 178 5,000  Level Atlanta TRACON
11:54AM 33.9667 -84.4333 180° South 160 184 5,000  Level Atlanta TRACON
11:55AM 33.9333 -84.4333 180° South 160 184 5,000  Level Atlanta TRACON
11:56AM 33.8833 -84.4167 165° South 156 180 5,000  Level Atlanta TRACON
11:57AM 33.8500 -84.4167 180° South 154 177 5,000  Level Atlanta TRACON
11:58AM 33.8000 -84.4000 165° South 156 180 5,000  Level Atlanta TRACON
11:59AM 33.7667 -84.4000 180° South 153 176 5,000  Level Atlanta TRACON
12:00PM 33.7167 -84.3833 165° South 150 173 5,000  Level Atlanta TRACON
12:01PM 33.6833 -84.3833 180° South 151 174 5,000  Level Atlanta TRACON
12:02PM 33.6333 -84.3833 180° South 158 182 5,000  Level Atlanta TRACON
12:03PM 33.6000 -84.3833 180° South 154 177 5,000  Level Atlanta TRACON
12:04PM 33.5500 -84.3833 180° South 150 173 5,000  Level Atlanta TRACON
12:05PM 33.5167 -84.3833 180° South 151 174 5,000  Level Atlanta TRACON
12:06PM 33.4667 -84.3667 164° South 151 174 5,000 120 Level Atlanta TRACON
12:07PM 33.4333 -84.3500 157° South 147 169 5,300 360 Climbing Atlanta TRACON
12:08PM 33.4000 -84.3167 140° Southeast 143 165 5,800 360 Climbing Atlanta TRACON
12:09PM 33.3833 -84.2833 121° Southeast 152 175 6,000 60 Climbing Atlanta TRACON
12:10PM 33.3500 -84.2667 157° South 166 191 6,000 180 Level Atlanta TRACON
12:11PM 33.3000 -84.2333 151° Southeast 157 181 6,400 420 Climbing Atlanta TRACON
12:12PM 33.2667 -84.2000 140° Southeast 144 166 6,900 300 Climbing Atlanta TRACON
12:13PM 33.2333 -84.1667 140° Southeast 163 188 7,000  Climbing Atlanta TRACON
12:14PM 33.2000 -84.1333 140° Southeast 171 197 7,000  Level Atlanta TRACON
12:15PM 33.1667 -84.1000 140° Southeast 165 190 7,000  Level Atlanta TRACON
12:16PM 33.1333 -84.0667 140° Southeast 166 191 7,000  Level Atlanta TRACON
12:17PM 33.1000 -84.0333 140° Southeast 171 197 7,000  Level Atlanta TRACON
12:18PM 33.0667 -84.0000 140° Southeast 173 199 7,000  Level Atlanta TRACON
12:19PM 33.0167 -83.9500 140° Southeast 173 199 7,000  Level Atlanta TRACON
12:20PM 32.9833 -83.9167 140° Southeast 173 199 7,000  Level Atlanta TRACON
12:21PM 32.9500 -83.8833 140° Southeast 174 200 7,000  Level Atlanta TRACON
12:22PM 32.9000 -83.8500 151° Southeast 174 200 7,000  Level Atlanta TRACON
12:23PM 32.8667 -83.8167 140° Southeast 172 198 7,000  Level Atlanta TRACON
12:24PM 32.8333 -83.7833 140° Southeast 171 197 7,000  Level Atlanta TRACON
12:25PM 32.8000 -83.7500 140° Southeast 170 196 7,000  Level Atlanta TRACON
12:26PM 32.7500 -83.7000 140° Southeast 168 193 7,000  Level Atlanta TRACON
12:27PM 32.7167 -83.6667 140° Southeast 155 178 7,000 -60 Level Atlanta TRACON
12:29PM 32.6333 -83.6167 153° Southeast 162 186 6,900 -60 Descending Atlanta TRACON
12:30PM 32.6000 -83.6000 157° South 165 190 6,900  Level Atlanta TRACON
12:31PM 32.5500 -83.6000 180° South 165 190 7,000  Climbing Atlanta TRACON
12:32PM 32.5000 -83.5667 151° Southeast 167 192 7,000  Level Atlanta TRACON
12:33PM 32.4667 -83.5500 157° South 169 194 7,000 -60 Level Atlanta TRACON
12:34PM 32.4167 -83.5333 164° South 170 196 6,900  Descending Atlanta TRACON
12:35PM 32.3833 -83.5167 157° South 169 194 7,000 60 Climbing Atlanta TRACON
12:36PM 32.3406 -83.5000 162° South 168 193 7,100  Climbing Jacksonville Center
12:37PM 32.2967 -83.4825 161° South 175 201 7,000 -60 Descending Jacksonville Center
12:38PM 32.2531 -83.4650 161° South 169 194 7,000  Level Jacksonville Center
12:39PM 32.2092 -83.4475 161° South 169 194 7,000  Level Jacksonville Center
12:40PM 32.1653 -83.4300 161° South 169 194 7,000  Level Jacksonville Center
12:41PM 32.1175 -83.4103 161° South 164 189 7,000  Level Jacksonville Center
12:42PM 32.0758 -83.3928 160° South 164 189 7,000  Level Jacksonville Center
12:43PM 32.0319 -83.3728 159° South 164 189 7,000  Level Jacksonville Center
12:44PM 31.9861 -83.3531 160° South 164 189 7,000  Level Jacksonville Center
12:45PM 31.9444 -83.3358 161° South 164 189 7,000  Level Jacksonville Center
12:46PM 31.8986 -83.3183 162° South 164 189 7,000  Level Jacksonville Center
12:47PM 31.8547 -83.2986 159° South 164 189 7,000 -120 Level Jacksonville Center
12:47PM 31.8464 -83.2961 166° South 169 194 6,900  Descending Jacksonville Center
12:48PM 31.8131 -83.2814 159° South 164 189 7,000  Climbing Jacksonville Center
12:48PM 31.7944 -83.2739 161° South 169 194 6,900  Descending Jacksonville Center
12:49PM 31.7672 -83.2639 163° South 164 189 7,000  Climbing Jacksonville Center
12:49PM 31.7525 -83.2592 165° South 166 191 6,900  Descending Jacksonville Center
12:50PM 31.7233 -83.2467 160° South 164 189 7,000 60 Climbing Jacksonville Center
12:50PM 31.7067 -83.2394 160° South 168 193 7,000  Level Jacksonville Center
12:51PM 31.6797 -83.2269 158° South 164 189 7,000  Level Jacksonville Center
12:51PM 31.6650 -83.2244 172° South 169 194 7,000  Level Jacksonville Center
12:52PM 31.6358 -83.2072 153° Southeast 164 189 7,000 -120 Level Jacksonville Center
12:52PM 31.6169 -83.2025 168° South 169 194 6,900  Descending Jacksonville Center
12:53PM 31.5900 -83.1900 158° South 164 189 7,000 60 Climbing Jacksonville Center
12:53PM 31.5711 -83.1853 168° South 167 192 7,000  Level Jacksonville Center
12:54PM 31.5461 -83.1728 157° South 164 189 7,000  Level Jacksonville Center
12:54PM 31.5272 -83.1681 168° South 168 193 7,000  Level Jacksonville Center
12:55PM 31.5022 -83.1558 157° South 169 194 7,000 -120 Level Jacksonville Center
12:55PM 31.4814 -83.1483 163° South 169 194 6,900  Descending Jacksonville Center
12:56PM 31.4586 -83.1361 155° Southeast 164 189 7,000  Climbing Jacksonville Center
12:56PM 31.4397 -83.1289 162° South 166 191 6,900  Descending Jacksonville Center
12:57PM 31.4147 -83.1164 157° South 164 189 7,000  Climbing Jacksonville Center
12:57PM 31.3939 -83.1117 169° South 169 194 6,900  Descending Jacksonville Center
12:58PM 31.3500 -83.0919 159° South 170 196 7,000  Climbing Jacksonville Center
12:59PM 31.3042 -83.0750 162° South 171 197 6,900 -60 Descending Jacksonville Center
01:00PM 31.2581 -83.0556 160° South 170 196 6,900  Level Jacksonville Center
01:01PM 31.2144 -83.0383 161° South 169 194 6,900  Level Jacksonville Center
01:02PM 31.1706 -83.0189 159° South 168 193 6,900  Level Jacksonville Center
01:03PM 31.1247 -83.0017 162° South 167 192 6,900  Level Jacksonville Center
01:04PM 31.0808 -82.9822 159° South 170 196 6,900  Level Jacksonville Center
01:05PM 31.0328 -82.9653 163° South 171 197 6,900  Level Jacksonville Center
01:06PM 30.9911 -82.9458 158° South 169 194 7,000  Climbing Jacksonville Center
01:07PM 30.9431 -82.9314 166° South 167 192 6,900 -120 Descending Jacksonville Center
01:08PM 30.9200 -82.9242 165° South 166 191 6,900  Level Jacksonville Center
01:09PM 30.8783 -82.9022 156° South 181 208 6,900  Level Jacksonville Center
01:10PM 30.8386 -82.8853 160° South 181 208 6,900  Level Jacksonville Center
01:11PM 30.7969 -82.8708 163° South 171 197 6,900  Level Jacksonville Center
01:12PM 30.7531 -82.8492 157° South 165 190 6,900  Level Jacksonville Center
01:13PM 30.7092 -82.8297 159° South 165 190 6,900  Level Jacksonville Center
01:14PM 30.6633 -82.8153 165° South 165 190 7,000  Climbing Jacksonville Center
01:15PM 30.6194 -82.7961 159° South 165 190 6,900 -60 Descending Jacksonville Center
01:16PM 30.5756 -82.7792 162° South 165 190 6,900  Level Jacksonville Center
01:17PM 30.5358 -82.7600 157° South 165 190 6,900  Level Jacksonville Center
01:18PM 30.4919 -82.7478 167° South 165 190 6,900  Level Jacksonville Center
01:19PM 30.4481 -82.7408 172° South 165 190 6,900  Level Jacksonville Center
01:20PM 30.4042 -82.7383 177° South 158 182 6,900 60 Level Jacksonville Center
01:20PM 30.3792 -82.7361 176° South 164 189 7,000  Climbing Jacksonville Center
01:21PM 30.3583 -82.7264 158° South 158 182 6,900  Descending Jacksonville Center
01:22PM 30.3186 -82.7242 177° South 162 186 7,000  Climbing Jacksonville Center
01:22PM 30.3164 -82.7194 119° Southeast 158 182 6,900  Descending Jacksonville Center
01:23PM 30.2747 -82.7194 180° South 161 185 7,000  Climbing Jacksonville Center
01:23PM 30.2686 -82.7194 180° South 158 182 6,900  Descending Jacksonville Center
01:24PM 30.2289 -82.7028 160° South 167 192 7,000  Climbing Jacksonville Center
01:24PM 30.2267 -82.6978 117° Southeast 158 182 6,900  Descending Jacksonville Center
01:25PM 30.1869 -82.6764 155° Southeast 172 198 7,000  Climbing Jacksonville Center
01:25PM 30.1869 -82.6692 90° East 169 194 6,900  Descending Jacksonville Center
01:26PM 30.1453 -82.6547 163° South 164 189 7,000  Climbing Jacksonville Center
01:26PM 30.1411 -82.6500 136° Southeast 169 194 6,900  Descending Jacksonville Center
01:27PM 30.0992 -82.6478 177° South 162 186 7,000  Climbing Jacksonville Center
01:28PM 30.0533 -82.6381 170° South 163 188 7,000  Level Jacksonville Center
01:29PM 30.0117 -82.6311 172° South 163 188 7,000 -120 Level Jacksonville Center
01:29PM 30.0072 -82.6264 137° Southeast 164 189 6,900 -120 Descending Jacksonville Center
01:30PM 29.9614 -82.6242 178° South 164 189 6,900  Level Jacksonville Center
01:31PM 29.9156 -82.6289 185° South 164 189 7,000  Climbing Jacksonville Center
01:32PM 29.8736 -82.6244 175° South 159 183 6,900  Descending Jacksonville Center
01:33PM 29.8256 -82.5981 155° Southeast 169 194 7,000  Climbing Jacksonville Center
01:34PM 29.7839 -82.5744 154° Southeast 169 194 7,000  Level Jacksonville Center
01:35PM 29.7419 -82.5528 156° South 169 194 7,000  Level Jacksonville Center
01:36PM 29.7022 -82.5267 150° Southeast 168 193 7,000  Level Jacksonville Center
01:37PM 29.6625 -82.4911 142° Southeast 174 200 7,000  Level Jacksonville Center
01:38PM 29.6250 -82.4697 154° Southeast 164 189 7,000  Level Jacksonville Center
01:39PM 29.5767 -82.4531 163° South 166 191 7,000  Level Jacksonville Center
01:40PM 29.5308 -82.4486 175° South 163 188 7,000  Level Jacksonville Center
01:41PM 29.4850 -82.4369 168° South 163 188 7,000  Level Jacksonville Center
01:42PM 29.4411 -82.4181 159° South 163 188 7,000  Level Jacksonville Center
01:43PM 29.4011 -82.3897 148° Southeast 169 194 7,000  Level Jacksonville Center
01:44PM 29.3614 -82.3611 148° Southeast 169 194 7,000  Level Jacksonville Center
01:45PM 29.3236 -82.3328 147° Southeast 164 189 7,000 -480 Level Jacksonville Center
01:46PM 29.2733 -82.2950 147° Southeast 199 229 6,000 -900 Descending Jacksonville Center
01:47PM 29.2253 -82.2644 151° Southeast 198 228 5,200 -480 Descending Jacksonville Center
01:48PM 29.1792 -82.2267 144° Southeast 175 201 5,100 -60 Descending Jacksonville Center
01:49PM 29.1414 -82.1961 145° Southeast 165 190 5,100  Level Jacksonville Center
01:50PM 29.1017 -82.1653 146° Southeast 163 188 5,100  Level Jacksonville Center
01:51PM 29.0597 -82.1372 150° Southeast 163 188 5,100  Level Jacksonville Center
01:52PM 29.0219 -82.1089 147° Southeast 164 189 5,100  Level Jacksonville Center
01:55PM 28.9333 -82.0333 143° Southeast 165 190 5,100  Level Orlando TRACON
01:56PM 28.9000 -82.0000 139° Southeast 163 188 5,100  Level Orlando TRACON
01:57PM 28.8667 -81.9833 156° South 162 186 5,100  Level Orlando TRACON
01:58PM 28.8167 -81.9500 150° Southeast 165 190 5,100  Level Orlando TRACON
01:59PM 28.7833 -81.9167 139° Southeast 161 185 5,200  Climbing Orlando TRACON
02:00PM 28.7500 -81.8833 139° Southeast 165 190 5,100 -480 Descending Orlando TRACON
02:01PM 28.7000 -81.8500 150° Southeast 184 212 4,200 -840 Descending Orlando TRACON
02:02PM 28.6667 -81.8333 156° South 183 211 3,600 -600 Descending Orlando TRACON
02:03PM 28.6333 -81.8000 139° Southeast 183 211 3,100 -480 Descending Orlando TRACON
02:04PM 28.5833 -81.7500 139° Southeast 173 199 2,600 -600 Descending Orlando TRACON
02:05PM 28.5667 -81.7167 120° Southeast 178 205 2,000 -360 Descending Orlando TRACON
02:06PM 28.5333 -81.6833 139° Southeast 154 177 2,000  Level Orlando TRACON
02:07PM 28.5000 -81.6333 127° Southeast 150 173 2,000  Level Orlando TRACON
02:08PM 28.4667 -81.6000 139° Southeast 154 177 2,000  Level Orlando TRACON
02:09PM 28.4333 -81.5667 139° Southeast 148 170 2,100  Climbing Orlando TRACON
02:10PM 28.4167 -81.5333 120° Southeast 152 175 2,000  Descending Orlando TRACON
02:11PM 28.3833 -81.5000 139° Southeast 149 171 2,100 -480 Climbing Orlando TRACON
02:12PM 28.3333 -81.4667 150° Southeast 181 208 1,100 -900 Descending Orlando TRACON
02:13PM 28.3000 -81.4500 156° South 132 152 400 -780 Descending Orlando TRACON
02:15PM 28.2833 -81.4333 139° Southeast  Level FlightAware Approximate